sensor_id;sensor_type;location;lat;lon;timestamp;P1;durP1;ratioP1;P2;durP2;ratioP2
68216;SDS011;55037;52.354;4.992;2022-08-05T00:00:14;9.05;;;3.50;;
68216;SDS011;55037;52.354;4.992;2022-08-05T00:02:43;10.65;;;3.80;;
68216;SDS011;55037;52.354;4.992;2022-08-05T00:05:18;8.68;;;3.40;;
68216;SDS011;55037;52.354;4.992;2022-08-05T00:08:06;9.18;;;3.20;;
68216;SDS011;55037;52.354;4.992;2022-08-05T00:10:55;9.68;;;3.35;;
68216;SDS011;55037;52.354;4.992;2022-08-05T00:13:36;6.97;;;2.97;;
68216;SDS011;55037;52.354;4.992;2022-08-05T00:16:11;8.55;;;3.10;;
68216;SDS011;55037;52.354;4.992;2022-08-05T00:18:41;7.18;;;3.00;;
68216;SDS011;55037;52.354;4.992;2022-08-05T00:21:14;7.90;;;3.03;;
68216;SDS011;55037;52.354;4.992;2022-08-05T00:23:43;11.45;;;3.28;;
68216;SDS011;55037;52.354;4.992;2022-08-05T00:26:32;8.95;;;3.20;;
68216;SDS011;55037;52.354;4.992;2022-08-05T00:28:59;7.10;;;3.25;;
68216;SDS011;55037;52.354;4.992;2022-08-05T00:31:27;7.40;;;3.20;;
68216;SDS011;55037;52.354;4.992;2022-08-05T00:34:15;8.65;;;3.17;;
68216;SDS011;55037;52.354;4.992;2022-08-05T00:37:02;8.65;;;3.10;;
68216;SDS011;55037;52.354;4.992;2022-08-05T00:39:39;9.07;;;3.50;;
68216;SDS011;55037;52.354;4.992;2022-08-05T00:42:35;7.80;;;3.30;;
68216;SDS011;55037;52.354;4.992;2022-08-05T00:45:05;8.82;;;3.50;;
68216;SDS011;55037;52.354;4.992;2022-08-05T00:47:37;9.40;;;3.28;;
68216;SDS011;55037;52.354;4.992;2022-08-05T00:50:23;8.52;;;3.33;;
68216;SDS011;55037;52.354;4.992;2022-08-05T00:52:52;9.02;;;3.35;;
68216;SDS011;55037;52.354;4.992;2022-08-05T00:55:21;8.25;;;3.33;;
68216;SDS011;55037;52.354;4.992;2022-08-05T00:57:59;7.97;;;3.53;;
68216;SDS011;55037;52.354;4.992;2022-08-05T01:00:30;7.10;;;3.10;;
68216;SDS011;55037;52.354;4.992;2022-08-05T01:03:00;6.78;;;3.50;;
68216;SDS011;55037;52.354;4.992;2022-08-05T01:05:33;9.45;;;4.30;;
68216;SDS011;55037;52.354;4.992;2022-08-05T01:08:00;9.75;;;3.15;;
68216;SDS011;55037;52.354;4.992;2022-08-05T01:10:58;8.95;;;3.75;;
68216;SDS011;55037;52.354;4.992;2022-08-05T01:13:38;10.70;;;3.53;;
68216;SDS011;55037;52.354;4.992;2022-08-05T01:16:37;9.23;;;3.40;;
68216;SDS011;55037;52.354;4.992;2022-08-05T01:28:30;9.25;;;3.42;;
68216;SDS011;55037;52.354;4.992;2022-08-05T01:31:23;10.32;;;3.30;;
68216;SDS011;55037;52.354;4.992;2022-08-05T01:33:53;9.13;;;3.30;;
68216;SDS011;55037;52.354;4.992;2022-08-05T01:36:30;7.53;;;3.30;;
68216;SDS011;55037;52.354;4.992;2022-08-05T01:39:08;8.95;;;3.25;;
68216;SDS011;55037;52.354;4.992;2022-08-05T01:41:37;5.88;;;3.10;;
68216;SDS011;55037;52.354;4.992;2022-08-05T01:44:10;7.60;;;3.27;;
68216;SDS011;55037;52.354;4.992;2022-08-05T01:46:41;10.38;;;3.03;;
68216;SDS011;55037;52.354;4.992;2022-08-05T01:49:14;8.38;;;2.88;;
68216;SDS011;55037;52.354;4.992;2022-08-05T01:51:51;7.60;;;2.67;;
68216;SDS011;55037;52.354;4.992;2022-08-05T01:54:45;7.07;;;2.60;;
68216;SDS011;55037;52.354;4.992;2022-08-05T01:57:19;9.57;;;3.20;;
68216;SDS011;55037;52.354;4.992;2022-08-05T02:00:11;8.57;;;2.80;;
68216;SDS011;55037;52.354;4.992;2022-08-05T02:02:40;6.55;;;2.80;;
68216;SDS011;55037;52.354;4.992;2022-08-05T02:05:22;7.63;;;2.60;;
68216;SDS011;55037;52.354;4.992;2022-08-05T02:08:00;7.70;;;2.60;;
68216;SDS011;55037;52.354;4.992;2022-08-05T02:10:30;6.10;;;2.58;;
68216;SDS011;55037;52.354;4.992;2022-08-05T02:13:10;7.05;;;2.40;;
68216;SDS011;55037;52.354;4.992;2022-08-05T02:15:49;8.00;;;2.40;;
68216;SDS011;55037;52.354;4.992;2022-08-05T02:18:24;6.88;;;2.67;;
68216;SDS011;55037;52.354;4.992;2022-08-05T02:21:05;7.03;;;2.77;;
68216;SDS011;55037;52.354;4.992;2022-08-05T02:23:41;7.28;;;2.65;;
68216;SDS011;55037;52.354;4.992;2022-08-05T02:26:12;7.53;;;2.83;;
68216;SDS011;55037;52.354;4.992;2022-08-05T02:28:42;6.53;;;2.57;;
68216;SDS011;55037;52.354;4.992;2022-08-05T02:31:14;5.15;;;2.35;;
68216;SDS011;55037;52.354;4.992;2022-08-05T02:34:08;6.10;;;2.40;;
68216;SDS011;55037;52.354;4.992;2022-08-05T02:36:48;8.23;;;2.45;;
68216;SDS011;55037;52.354;4.992;2022-08-05T02:39:19;6.00;;;2.42;;
68216;SDS011;55037;52.354;4.992;2022-08-05T02:41:49;7.73;;;2.47;;
68216;SDS011;55037;52.354;4.992;2022-08-05T02:44:27;7.60;;;2.63;;
68216;SDS011;55037;52.354;4.992;2022-08-05T02:46:57;6.90;;;2.60;;
68216;SDS011;55037;52.354;4.992;2022-08-05T02:49:30;6.93;;;2.63;;
68216;SDS011;55037;52.354;4.992;2022-08-05T02:52:05;6.07;;;2.35;;
68216;SDS011;55037;52.354;4.992;2022-08-05T02:54:56;5.67;;;2.40;;
68216;SDS011;55037;52.354;4.992;2022-08-05T02:57:31;7.75;;;2.28;;
68216;SDS011;55037;52.354;4.992;2022-08-05T03:00:19;5.50;;;2.17;;
68216;SDS011;55037;52.354;4.992;2022-08-05T03:02:46;7.97;;;2.30;;
68216;SDS011;55037;52.354;4.992;2022-08-05T03:05:16;5.93;;;2.30;;
68216;SDS011;55037;52.354;4.992;2022-08-05T03:08:05;7.47;;;2.47;;
68216;SDS011;55037;52.354;4.992;2022-08-05T03:10:35;8.48;;;2.35;;
68216;SDS011;55037;52.354;4.992;2022-08-05T03:13:10;7.38;;;2.45;;
68216;SDS011;55037;52.354;4.992;2022-08-05T03:15:43;6.30;;;2.50;;
68216;SDS011;55037;52.354;4.992;2022-08-05T03:18:11;7.75;;;2.70;;
68216;SDS011;55037;52.354;4.992;2022-08-05T03:20:43;7.05;;;2.58;;
68216;SDS011;55037;52.354;4.992;2022-08-05T03:23:16;5.97;;;2.50;;
68216;SDS011;55037;52.354;4.992;2022-08-05T03:25:43;6.40;;;2.60;;
68216;SDS011;55037;52.354;4.992;2022-08-05T03:28:31;5.40;;;2.50;;
68216;SDS011;55037;52.354;4.992;2022-08-05T03:30:59;7.35;;;2.30;;
68216;SDS011;55037;52.354;4.992;2022-08-05T03:33:27;6.38;;;2.78;;
68216;SDS011;55037;52.354;4.992;2022-08-05T03:36:14;5.70;;;2.47;;
68216;SDS011;55037;52.354;4.992;2022-08-05T03:38:56;6.25;;;2.47;;
68216;SDS011;55037;52.354;4.992;2022-08-05T03:41:23;9.48;;;2.65;;
68216;SDS011;55037;52.354;4.992;2022-08-05T03:43:58;8.10;;;2.50;;
68216;SDS011;55037;52.354;4.992;2022-08-05T03:46:37;5.85;;;2.22;;
68216;SDS011;55037;52.354;4.992;2022-08-05T03:49:04;7.22;;;2.47;;
68216;SDS011;55037;52.354;4.992;2022-08-05T03:51:37;5.85;;;2.40;;
68216;SDS011;55037;52.354;4.992;2022-08-05T03:57:56;4.82;;;2.10;;
68216;SDS011;55037;52.354;4.992;2022-08-05T04:00:24;5.45;;;2.30;;
68216;SDS011;55037;52.354;4.992;2022-08-05T04:02:57;6.63;;;2.20;;
68216;SDS011;55037;52.354;4.992;2022-08-05T04:05:31;7.30;;;2.40;;
68216;SDS011;55037;52.354;4.992;2022-08-05T04:08:01;5.70;;;2.28;;
68216;SDS011;55037;52.354;4.992;2022-08-05T04:10:51;5.00;;;2.30;;
68216;SDS011;55037;52.354;4.992;2022-08-05T04:13:18;4.65;;;2.10;;
68216;SDS011;55037;52.354;4.992;2022-08-05T04:15:47;5.65;;;2.00;;
68216;SDS011;55037;52.354;4.992;2022-08-05T04:18:29;5.38;;;2.10;;
68216;SDS011;55037;52.354;4.992;2022-08-05T04:21:00;4.93;;;2.25;;
68216;SDS011;55037;52.354;4.992;2022-08-05T04:23:29;3.97;;;1.90;;
68216;SDS011;55037;52.354;4.992;2022-08-05T04:26:18;5.60;;;2.30;;
68216;SDS011;55037;52.354;4.992;2022-08-05T04:28:45;5.43;;;2.23;;
68216;SDS011;55037;52.354;4.992;2022-08-05T04:31:18;4.45;;;2.10;;
68216;SDS011;55037;52.354;4.992;2022-08-05T04:33:45;5.72;;;2.20;;
68216;SDS011;55037;52.354;4.992;2022-08-05T04:36:33;6.57;;;2.25;;
68216;SDS011;55037;52.354;4.992;2022-08-05T04:39:12;5.77;;;2.00;;
68216;SDS011;55037;52.354;4.992;2022-08-05T04:41:39;6.43;;;2.03;;
68216;SDS011;55037;52.354;4.992;2022-08-05T04:44:06;5.63;;;2.00;;
68216;SDS011;55037;52.354;4.992;2022-08-05T04:46:36;4.78;;;2.00;;
68216;SDS011;55037;52.354;4.992;2022-08-05T04:49:07;5.30;;;2.00;;
68216;SDS011;55037;52.354;4.992;2022-08-05T04:51:43;5.87;;;2.23;;
68216;SDS011;55037;52.354;4.992;2022-08-05T04:54:10;4.97;;;1.90;;
68216;SDS011;55037;52.354;4.992;2022-08-05T04:56:38;4.77;;;2.00;;
68216;SDS011;55037;52.354;4.992;2022-08-05T04:59:06;4.53;;;2.17;;
68216;SDS011;55037;52.354;4.992;2022-08-05T05:01:53;5.40;;;1.90;;
68216;SDS011;55037;52.354;4.992;2022-08-05T05:04:40;4.40;;;2.10;;
68216;SDS011;55037;52.354;4.992;2022-08-05T05:07:14;4.95;;;2.05;;
68216;SDS011;55037;52.354;4.992;2022-08-05T05:09:43;5.00;;;2.20;;
68216;SDS011;55037;52.354;4.992;2022-08-05T05:12:11;5.80;;;2.10;;
68216;SDS011;55037;52.354;4.992;2022-08-05T05:14:38;5.25;;;2.10;;
68216;SDS011;55037;52.354;4.992;2022-08-05T05:17:15;4.30;;;1.90;;
68216;SDS011;55037;52.354;4.992;2022-08-05T05:19:51;5.88;;;2.05;;
68216;SDS011;55037;52.354;4.992;2022-08-05T05:22:19;4.80;;;1.83;;
68216;SDS011;55037;52.354;4.992;2022-08-05T05:24:51;4.03;;;1.60;;
68216;SDS011;55037;52.354;4.992;2022-08-05T05:27:28;3.83;;;1.80;;
68216;SDS011;55037;52.354;4.992;2022-08-05T05:30:15;4.38;;;1.33;;
68216;SDS011;55037;52.354;4.992;2022-08-05T05:32:58;4.18;;;1.60;;
68216;SDS011;55037;52.354;4.992;2022-08-05T05:35:42;4.57;;;1.50;;
68216;SDS011;55037;52.354;4.992;2022-08-05T05:38:10;4.03;;;1.55;;
68216;SDS011;55037;52.354;4.992;2022-08-05T05:40:40;3.95;;;1.35;;
68216;SDS011;55037;52.354;4.992;2022-08-05T05:43:20;4.97;;;1.60;;
68216;SDS011;55037;52.354;4.992;2022-08-05T05:46:09;5.22;;;1.83;;
68216;SDS011;55037;52.354;4.992;2022-08-05T05:48:45;5.07;;;1.50;;
68216;SDS011;55037;52.354;4.992;2022-08-05T05:51:31;4.03;;;1.63;;
68216;SDS011;55037;52.354;4.992;2022-08-05T05:54:16;3.78;;;1.50;;
68216;SDS011;55037;52.354;4.992;2022-08-05T05:56:45;4.68;;;1.65;;
68216;SDS011;55037;52.354;4.992;2022-08-05T05:59:13;3.97;;;1.60;;
68216;SDS011;55037;52.354;4.992;2022-08-05T06:01:41;4.90;;;1.40;;
68216;SDS011;55037;52.354;4.992;2022-08-05T06:04:23;4.50;;;1.60;;
68216;SDS011;55037;52.354;4.992;2022-08-05T06:06:51;4.18;;;1.67;;
68216;SDS011;55037;52.354;4.992;2022-08-05T06:09:18;4.18;;;1.60;;
68216;SDS011;55037;52.354;4.992;2022-08-05T06:11:53;4.25;;;1.73;;
68216;SDS011;55037;52.354;4.992;2022-08-05T06:14:28;5.07;;;2.10;;
68216;SDS011;55037;52.354;4.992;2022-08-05T06:16:57;3.50;;;1.80;;
68216;SDS011;55037;52.354;4.992;2022-08-05T06:19:45;3.15;;;1.50;;
68216;SDS011;55037;52.354;4.992;2022-08-05T06:22:28;4.45;;;1.55;;
68216;SDS011;55037;52.354;4.992;2022-08-05T06:25:00;5.13;;;1.95;;
68216;SDS011;55037;52.354;4.992;2022-08-05T06:27:50;3.60;;;1.45;;
68216;SDS011;55037;52.354;4.992;2022-08-05T06:30:38;3.65;;;1.42;;
68216;SDS011;55037;52.354;4.992;2022-08-05T06:33:07;3.95;;;1.40;;
68216;SDS011;55037;52.354;4.992;2022-08-05T06:35:36;4.90;;;1.50;;
68216;SDS011;55037;52.354;4.992;2022-08-05T06:38:24;3.55;;;1.30;;
68216;SDS011;55037;52.354;4.992;2022-08-05T06:41:02;4.63;;;1.73;;
68216;SDS011;55037;52.354;4.992;2022-08-05T06:43:33;4.55;;;1.48;;
68216;SDS011;55037;52.354;4.992;2022-08-05T06:46:21;3.63;;;1.65;;
68216;SDS011;55037;52.354;4.992;2022-08-05T06:48:56;5.57;;;1.60;;
68216;SDS011;55037;52.354;4.992;2022-08-05T06:51:25;4.35;;;1.60;;
68216;SDS011;55037;52.354;4.992;2022-08-05T06:53:59;3.33;;;1.30;;
68216;SDS011;55037;52.354;4.992;2022-08-05T06:56:28;3.60;;;1.40;;
68216;SDS011;55037;52.354;4.992;2022-08-05T06:59:03;5.13;;;1.20;;
68216;SDS011;55037;52.354;4.992;2022-08-05T07:01:37;3.60;;;1.27;;
68216;SDS011;55037;52.354;4.992;2022-08-05T07:04:06;3.60;;;1.30;;
68216;SDS011;55037;52.354;4.992;2022-08-05T07:06:33;3.10;;;1.30;;
68216;SDS011;55037;52.354;4.992;2022-08-05T07:09:01;5.35;;;1.45;;
68216;SDS011;55037;52.354;4.992;2022-08-05T07:11:31;3.65;;;1.27;;
68216;SDS011;55037;52.354;4.992;2022-08-05T07:14:03;3.90;;;1.20;;
68216;SDS011;55037;52.354;4.992;2022-08-05T07:16:59;4.78;;;1.17;;
68216;SDS011;55037;52.354;4.992;2022-08-05T07:19:47;3.67;;;1.27;;
68216;SDS011;55037;52.354;4.992;2022-08-05T07:22:38;2.50;;;1.30;;
68216;SDS011;55037;52.354;4.992;2022-08-05T07:25:08;2.87;;;1.10;;
68216;SDS011;55037;52.354;4.992;2022-08-05T07:27:55;4.38;;;1.27;;
68216;SDS011;55037;52.354;4.992;2022-08-05T07:30:33;4.15;;;1.10;;
68216;SDS011;55037;52.354;4.992;2022-08-05T07:33:05;3.75;;;1.20;;
68216;SDS011;55037;52.354;4.992;2022-08-05T07:35:42;3.88;;;1.30;;
68216;SDS011;55037;52.354;4.992;2022-08-05T07:38:30;2.95;;;1.00;;
68216;SDS011;55037;52.354;4.992;2022-08-05T07:41:09;4.05;;;1.00;;
68216;SDS011;55037;52.354;4.992;2022-08-05T07:43:58;3.97;;;1.00;;
68216;SDS011;55037;52.354;4.992;2022-08-05T07:46:26;3.63;;;1.00;;
68216;SDS011;55037;52.354;4.992;2022-08-05T07:48:57;4.30;;;1.10;;
68216;SDS011;55037;52.354;4.992;2022-08-05T07:51:32;4.50;;;1.10;;
68216;SDS011;55037;52.354;4.992;2022-08-05T07:54:06;6.55;;;1.20;;
68216;SDS011;55037;52.354;4.992;2022-08-05T07:56:35;3.35;;;1.10;;
68216;SDS011;55037;52.354;4.992;2022-08-05T07:59:23;5.00;;;1.10;;
68216;SDS011;55037;52.354;4.992;2022-08-05T08:02:09;4.75;;;1.00;;
68216;SDS011;55037;52.354;4.992;2022-08-05T08:04:43;3.65;;;1.10;;
68216;SDS011;55037;52.354;4.992;2022-08-05T08:07:12;4.43;;;1.27;;
68216;SDS011;55037;52.354;4.992;2022-08-05T08:09:41;3.45;;;1.00;;
68216;SDS011;55037;52.354;4.992;2022-08-05T08:12:09;4.85;;;1.10;;
68216;SDS011;55037;52.354;4.992;2022-08-05T08:14:59;4.80;;;1.05;;
68216;SDS011;55037;52.354;4.992;2022-08-05T08:17:28;2.83;;;1.00;;
68216;SDS011;55037;52.354;4.992;2022-08-05T08:19:56;2.58;;;0.90;;
68216;SDS011;55037;52.354;4.992;2022-08-05T08:22:49;2.57;;;0.90;;
68216;SDS011;55037;52.354;4.992;2022-08-05T08:25:22;3.28;;;1.00;;
68216;SDS011;55037;52.354;4.992;2022-08-05T08:28:09;4.03;;;1.08;;
68216;SDS011;55037;52.354;4.992;2022-08-05T08:30:45;3.38;;;1.00;;
68216;SDS011;55037;52.354;4.992;2022-08-05T08:33:18;2.97;;;1.00;;
68216;SDS011;55037;52.354;4.992;2022-08-05T08:35:45;2.35;;;0.98;;
68216;SDS011;55037;52.354;4.992;2022-08-05T08:38:29;3.90;;;0.90;;
68216;SDS011;55037;52.354;4.992;2022-08-05T08:41:04;3.55;;;0.90;;
68216;SDS011;55037;52.354;4.992;2022-08-05T08:43:35;3.50;;;0.95;;
68216;SDS011;55037;52.354;4.992;2022-08-05T08:46:23;2.63;;;0.80;;
68216;SDS011;55037;52.354;4.992;2022-08-05T08:48:53;3.08;;;0.90;;
68216;SDS011;55037;52.354;4.992;2022-08-05T08:51:41;2.75;;;0.90;;
68216;SDS011;55037;52.354;4.992;2022-08-05T08:54:32;3.10;;;0.80;;
68216;SDS011;55037;52.354;4.992;2022-08-05T08:57:03;1.65;;;0.90;;
68216;SDS011;55037;52.354;4.992;2022-08-05T08:59:38;2.42;;;0.93;;
68216;SDS011;55037;52.354;4.992;2022-08-05T09:02:12;3.15;;;0.80;;
68216;SDS011;55037;52.354;4.992;2022-08-05T09:04:42;2.38;;;1.00;;
68216;SDS011;55037;52.354;4.992;2022-08-05T09:07:30;2.95;;;0.73;;
68216;SDS011;55037;52.354;4.992;2022-08-05T09:10:18;2.10;;;0.73;;
68216;SDS011;55037;52.354;4.992;2022-08-05T09:12:52;2.95;;;0.90;;
68216;SDS011;55037;52.354;4.992;2022-08-05T09:15:21;2.55;;;0.80;;
68216;SDS011;55037;52.354;4.992;2022-08-05T09:17:50;2.75;;;0.80;;
68216;SDS011;55037;52.354;4.992;2022-08-05T09:20:18;3.65;;;0.70;;
68216;SDS011;55037;52.354;4.992;2022-08-05T09:23:10;2.60;;;0.90;;
68216;SDS011;55037;52.354;4.992;2022-08-05T09:25:49;2.30;;;0.80;;
68216;SDS011;55037;52.354;4.992;2022-08-05T09:28:30;2.25;;;1.00;;
68216;SDS011;55037;52.354;4.992;2022-08-05T09:31:00;2.50;;;0.77;;
68216;SDS011;55037;52.354;4.992;2022-08-05T09:33:56;1.83;;;0.80;;
68216;SDS011;55037;52.354;4.992;2022-08-05T09:36:41;2.42;;;0.77;;
68216;SDS011;55037;52.354;4.992;2022-08-05T09:39:24;1.67;;;0.70;;
68216;SDS011;55037;52.354;4.992;2022-08-05T09:42:18;2.33;;;0.80;;
68216;SDS011;55037;52.354;4.992;2022-08-05T09:44:54;3.60;;;1.00;;
68216;SDS011;55037;52.354;4.992;2022-08-05T09:47:42;3.42;;;1.00;;
68216;SDS011;55037;52.354;4.992;2022-08-05T09:50:32;2.17;;;0.77;;
68216;SDS011;55037;52.354;4.992;2022-08-05T09:53:10;1.90;;;0.80;;
68216;SDS011;55037;52.354;4.992;2022-08-05T09:55:58;3.15;;;0.70;;
68216;SDS011;55037;52.354;4.992;2022-08-05T09:58:38;2.53;;;0.90;;
68216;SDS011;55037;52.354;4.992;2022-08-05T10:01:10;2.78;;;0.80;;
68216;SDS011;55037;52.354;4.992;2022-08-05T10:03:53;2.70;;;0.93;;
68216;SDS011;55037;52.354;4.992;2022-08-05T10:06:37;3.28;;;0.90;;
68216;SDS011;55037;52.354;4.992;2022-08-05T10:09:21;2.67;;;0.90;;
68216;SDS011;55037;52.354;4.992;2022-08-05T10:12:08;4.90;;;0.80;;
68216;SDS011;55037;52.354;4.992;2022-08-05T10:15:12;3.60;;;0.90;;
68216;SDS011;55037;52.354;4.992;2022-08-05T10:17:43;2.78;;;1.00;;
68216;SDS011;55037;52.354;4.992;2022-08-05T10:20:22;2.90;;;0.82;;
68216;SDS011;55037;52.354;4.992;2022-08-05T10:22:51;3.93;;;1.00;;
68216;SDS011;55037;52.354;4.992;2022-08-05T10:25:19;2.20;;;0.90;;
68216;SDS011;55037;52.354;4.992;2022-08-05T10:27:46;4.35;;;1.00;;
68216;SDS011;55037;52.354;4.992;2022-08-05T10:30:34;2.80;;;1.00;;
68216;SDS011;55037;52.354;4.992;2022-08-05T10:33:23;2.60;;;1.00;;
68216;SDS011;55037;52.354;4.992;2022-08-05T10:35:55;3.30;;;1.20;;
68216;SDS011;55037;52.354;4.992;2022-08-05T10:38:26;2.30;;;1.03;;
68216;SDS011;55037;52.354;4.992;2022-08-05T10:41:12;2.87;;;0.93;;
68216;SDS011;55037;52.354;4.992;2022-08-05T10:44:00;5.30;;;1.00;;
68216;SDS011;55037;52.354;4.992;2022-08-05T10:49:21;2.23;;;0.90;;
68216;SDS011;55037;52.354;4.992;2022-08-05T10:51:58;3.38;;;0.77;;
68216;SDS011;55037;52.354;4.992;2022-08-05T10:57:26;2.50;;;0.90;;
68216;SDS011;55037;52.354;4.992;2022-08-05T11:06:01;3.03;;;0.90;;
68216;SDS011;55037;52.354;4.992;2022-08-05T11:08:30;4.53;;;0.90;;
68216;SDS011;55037;52.354;4.992;2022-08-05T11:17:31;3.50;;;1.10;;
68216;SDS011;55037;52.354;4.992;2022-08-05T11:20:34;4.25;;;1.00;;
68216;SDS011;55037;52.354;4.992;2022-08-05T11:28:55;2.95;;;0.90;;
68216;SDS011;55037;52.354;4.992;2022-08-05T11:31:26;3.05;;;0.82;;
68216;SDS011;55037;52.354;4.992;2022-08-05T11:34:20;1.77;;;0.90;;
68216;SDS011;55037;52.354;4.992;2022-08-05T11:37:05;1.70;;;0.80;;
68216;SDS011;55037;52.354;4.992;2022-08-05T11:39:52;2.40;;;0.90;;
68216;SDS011;55037;52.354;4.992;2022-08-05T11:42:29;3.17;;;0.90;;
68216;SDS011;55037;52.354;4.992;2022-08-05T11:45:06;4.57;;;0.90;;
68216;SDS011;55037;52.354;4.992;2022-08-05T11:47:54;2.42;;;0.90;;
68216;SDS011;55037;52.354;4.992;2022-08-05T11:50:21;3.03;;;1.00;;
68216;SDS011;55037;52.354;4.992;2022-08-05T11:52:50;3.35;;;0.90;;
68216;SDS011;55037;52.354;4.992;2022-08-05T11:55:23;3.10;;;0.90;;
68216;SDS011;55037;52.354;4.992;2022-08-05T11:58:02;3.17;;;1.20;;
68216;SDS011;55037;52.354;4.992;2022-08-05T12:00:37;4.20;;;1.08;;
68216;SDS011;55037;52.354;4.992;2022-08-05T12:03:19;2.85;;;1.17;;
68216;SDS011;55037;52.354;4.992;2022-08-05T12:05:58;3.53;;;1.10;;
68216;SDS011;55037;52.354;4.992;2022-08-05T12:08:27;3.60;;;0.90;;
68216;SDS011;55037;52.354;4.992;2022-08-05T12:10:58;3.13;;;1.00;;
68216;SDS011;55037;52.354;4.992;2022-08-05T12:13:31;2.58;;;0.93;;
68216;SDS011;55037;52.354;4.992;2022-08-05T12:16:18;3.40;;;1.10;;
68216;SDS011;55037;52.354;4.992;2022-08-05T12:18:53;2.28;;;0.88;;
68216;SDS011;55037;52.354;4.992;2022-08-05T12:21:25;3.55;;;1.05;;
68216;SDS011;55037;52.354;4.992;2022-08-05T12:24:05;4.43;;;1.15;;
68216;SDS011;55037;52.354;4.992;2022-08-05T12:26:38;3.22;;;1.00;;
68216;SDS011;55037;52.354;4.992;2022-08-05T12:29:17;3.85;;;1.20;;
68216;SDS011;55037;52.354;4.992;2022-08-05T12:31:53;2.63;;;1.08;;
68216;SDS011;55037;52.354;4.992;2022-08-05T12:34:22;2.38;;;1.00;;
68216;SDS011;55037;52.354;4.992;2022-08-05T12:37:01;2.92;;;1.08;;
68216;SDS011;55037;52.354;4.992;2022-08-05T12:39:43;2.47;;;1.20;;
68216;SDS011;55037;52.354;4.992;2022-08-05T12:42:18;4.50;;;1.05;;
68216;SDS011;55037;52.354;4.992;2022-08-05T12:44:46;2.95;;;1.10;;
68216;SDS011;55037;52.354;4.992;2022-08-05T12:47:27;3.35;;;1.40;;
68216;SDS011;55037;52.354;4.992;2022-08-05T12:49:56;2.50;;;1.10;;
68216;SDS011;55037;52.354;4.992;2022-08-05T12:52:32;2.57;;;1.10;;
68216;SDS011;55037;52.354;4.992;2022-08-05T12:55:15;2.80;;;1.27;;
68216;SDS011;55037;52.354;4.992;2022-08-05T12:57:50;2.97;;;1.03;;
68216;SDS011;55037;52.354;4.992;2022-08-05T13:00:40;4.07;;;1.30;;
68216;SDS011;55037;52.354;4.992;2022-08-05T13:03:30;3.70;;;1.20;;
68216;SDS011;55037;52.354;4.992;2022-08-05T13:05:59;3.58;;;1.30;;
68216;SDS011;55037;52.354;4.992;2022-08-05T13:08:30;3.15;;;1.33;;
68216;SDS011;55037;52.354;4.992;2022-08-05T13:11:01;4.32;;;1.60;;
68216;SDS011;55037;52.354;4.992;2022-08-05T13:13:30;3.15;;;1.50;;
68216;SDS011;55037;52.354;4.992;2022-08-05T13:16:18;2.30;;;1.10;;
68216;SDS011;55037;52.354;4.992;2022-08-05T13:18:49;4.97;;;1.42;;
68216;SDS011;55037;52.354;4.992;2022-08-05T13:21:24;5.10;;;1.10;;
68216;SDS011;55037;52.354;4.992;2022-08-05T13:23:54;4.85;;;1.20;;
68216;SDS011;55037;52.354;4.992;2022-08-05T13:26:24;3.97;;;1.10;;
68216;SDS011;55037;52.354;4.992;2022-08-05T13:28:56;4.35;;;1.20;;
68216;SDS011;55037;52.354;4.992;2022-08-05T13:31:26;2.90;;;1.20;;
68216;SDS011;55037;52.354;4.992;2022-08-05T13:34:13;3.00;;;1.50;;
68216;SDS011;55037;52.354;4.992;2022-08-05T13:36:51;4.10;;;1.40;;
68216;SDS011;55037;52.354;4.992;2022-08-05T13:39:19;4.57;;;1.35;;
68216;SDS011;55037;52.354;4.992;2022-08-05T13:42:07;5.70;;;1.50;;
68216;SDS011;55037;52.354;4.992;2022-08-05T13:44:41;4.35;;;1.38;;
68216;SDS011;55037;52.354;4.992;2022-08-05T13:47:12;5.38;;;1.20;;
68216;SDS011;55037;52.354;4.992;2022-08-05T13:50:00;3.72;;;1.20;;
68216;SDS011;55037;52.354;4.992;2022-08-05T13:52:39;4.57;;;1.33;;
68216;SDS011;55037;52.354;4.992;2022-08-05T13:55:06;3.42;;;1.10;;
68216;SDS011;55037;52.354;4.992;2022-08-05T13:57:35;4.55;;;1.20;;
68216;SDS011;55037;52.354;4.992;2022-08-05T14:00:18;4.10;;;1.35;;
68216;SDS011;55037;52.354;4.992;2022-08-05T14:02:56;2.88;;;1.20;;
68216;SDS011;55037;52.354;4.992;2022-08-05T14:05:27;4.28;;;1.30;;
68216;SDS011;55037;52.354;4.992;2022-08-05T14:08:14;2.67;;;1.20;;
68216;SDS011;55037;52.354;4.992;2022-08-05T14:10:53;4.85;;;1.48;;
68216;SDS011;55037;52.354;4.992;2022-08-05T14:13:33;4.25;;;1.40;;
68216;SDS011;55037;52.354;4.992;2022-08-05T14:16:00;3.13;;;0.90;;
68216;SDS011;55037;52.354;4.992;2022-08-05T14:18:36;5.22;;;1.30;;
68216;SDS011;55037;52.354;4.992;2022-08-05T14:21:03;4.80;;;1.00;;
68216;SDS011;55037;52.354;4.992;2022-08-05T14:23:51;3.35;;;0.80;;
68216;SDS011;55037;52.354;4.992;2022-08-05T14:26:19;3.22;;;0.90;;
68216;SDS011;55037;52.354;4.992;2022-08-05T14:29:06;3.22;;;1.08;;
68216;SDS011;55037;52.354;4.992;2022-08-05T14:31:43;3.37;;;1.10;;
68216;SDS011;55037;52.354;4.992;2022-08-05T14:34:31;3.30;;;1.13;;
68216;SDS011;55037;52.354;4.992;2022-08-05T14:37:02;3.03;;;1.38;;
68216;SDS011;55037;52.354;4.992;2022-08-05T14:39:30;2.35;;;1.08;;
68216;SDS011;55037;52.354;4.992;2022-08-05T14:42:18;1.83;;;0.80;;
68216;SDS011;55037;52.354;4.992;2022-08-05T14:44:47;2.90;;;1.10;;
68216;SDS011;55037;52.354;4.992;2022-08-05T14:47:14;3.40;;;1.00;;
68216;SDS011;55037;52.354;4.992;2022-08-05T14:50:02;3.70;;;0.90;;
68216;SDS011;55037;52.354;4.992;2022-08-05T14:52:43;2.75;;;1.23;;
68216;SDS011;55037;52.354;4.992;2022-08-05T14:55:22;3.93;;;1.07;;
68216;SDS011;55037;52.354;4.992;2022-08-05T14:57:50;3.40;;;0.90;;
68216;SDS011;55037;52.354;4.992;2022-08-05T15:00:22;2.17;;;0.90;;
68216;SDS011;55037;52.354;4.992;2022-08-05T15:02:57;3.90;;;1.00;;
68216;SDS011;55037;52.354;4.992;2022-08-05T15:05:24;3.42;;;1.08;;
68216;SDS011;55037;52.354;4.992;2022-08-05T15:08:12;3.67;;;1.07;;
68216;SDS011;55037;52.354;4.992;2022-08-05T15:11:00;3.75;;;0.98;;
68216;SDS011;55037;52.354;4.992;2022-08-05T15:13:27;3.28;;;1.00;;
68216;SDS011;55037;52.354;4.992;2022-08-05T15:16:12;5.53;;;1.20;;
68216;SDS011;55037;52.354;4.992;2022-08-05T15:18:41;2.70;;;0.90;;
68216;SDS011;55037;52.354;4.992;2022-08-05T15:21:12;4.82;;;1.02;;
68216;SDS011;55037;52.354;4.992;2022-08-05T15:23:46;3.08;;;1.00;;
68216;SDS011;55037;52.354;4.992;2022-08-05T15:26:13;5.00;;;1.10;;
68216;SDS011;55037;52.354;4.992;2022-08-05T15:28:57;3.33;;;1.20;;
68216;SDS011;55037;52.354;4.992;2022-08-05T15:31:28;3.45;;;1.10;;
68216;SDS011;55037;52.354;4.992;2022-08-05T15:34:00;3.83;;;0.95;;
68216;SDS011;55037;52.354;4.992;2022-08-05T15:36:47;2.60;;;0.90;;
68216;SDS011;55037;52.354;4.992;2022-08-05T15:39:17;3.47;;;1.05;;
68216;SDS011;55037;52.354;4.992;2022-08-05T15:42:04;3.53;;;0.90;;
68216;SDS011;55037;52.354;4.992;2022-08-05T15:44:54;3.40;;;0.87;;
68216;SDS011;55037;52.354;4.992;2022-08-05T15:47:21;3.55;;;0.90;;
68216;SDS011;55037;52.354;4.992;2022-08-05T15:49:49;3.58;;;1.00;;
68216;SDS011;55037;52.354;4.992;2022-08-05T15:52:25;3.10;;;0.80;;
68216;SDS011;55037;52.354;4.992;2022-08-05T15:55:13;3.92;;;1.20;;
68216;SDS011;55037;52.354;4.992;2022-08-05T15:57:42;4.05;;;1.10;;
68216;SDS011;55037;52.354;4.992;2022-08-05T16:00:11;3.60;;;0.88;;
68216;SDS011;55037;52.354;4.992;2022-08-05T16:02:42;4.13;;;1.00;;
68216;SDS011;55037;52.354;4.992;2022-08-05T16:05:10;3.80;;;1.00;;
68216;SDS011;55037;52.354;4.992;2022-08-05T16:07:37;2.88;;;0.90;;
68216;SDS011;55037;52.354;4.992;2022-08-05T16:10:12;3.58;;;1.13;;
68216;SDS011;55037;52.354;4.992;2022-08-05T16:12:40;3.50;;;0.93;;
68216;SDS011;55037;52.354;4.992;2022-08-05T16:15:08;3.95;;;0.95;;
68216;SDS011;55037;52.354;4.992;2022-08-05T16:17:44;5.63;;;1.00;;
68216;SDS011;55037;52.354;4.992;2022-08-05T16:20:24;5.22;;;1.20;;